Latest Coastal Weather Observations for Cape Nelson

IDS60701

Issued at 10:21 pm CST Friday 21 July 2017 (issued every 10 minutes, with the page automatically refreshed every 10 minutes)

About coastal observations | Map of coastal stations | Coastal observations for SA | Marine services | Other Formats
Station Details ID: 090184 Name: CAPE NELSON LIGHTHOUSE Lat: -38.43 Lon: 141.54 Height: 45.4 m
Data from the previous 72 hours. | See also: Recent months at Cape Nelson
Date/Time
CST
Temp
°C
Wind Pressure Rain since
9am
mm
Weather Cloud Vis
km
Sea
Height
m
Swell
Dir  Spd
kts
Gust
kts
hPa Trend Height
m
Period
s
Dir
21/10:00pm 7.6 N 12 19 1017.7 - 0.0 - - - - - - -
21/09:30pm 7.8 NNE 12 17 1018.2 - 0.0 - - - - - - -
21/09:00pm 8.3 N 12 18 1018.7 - 0.0 - - - - - - -
21/08:30pm 8.8 N 14 22 1019.0 - 0.0 - - - - - - -
21/08:00pm 8.7 N 14 21 1019.0 - 0.0 - - - - - - -
21/07:30pm 8.8 N 12 19 1019.1 - 0.0 - - - - - - -
21/07:00pm 8.8 N 11 15 1019.2 - 0.0 - - - - - - -
21/06:30pm 8.7 N 8 12 1019.5 - 0.0 - - - - - - -
21/06:00pm 8.5 N 7 10 1019.4 - 0.0 - - - - - - -
21/05:30pm 9.1 N 6 8 1019.4 - 0.0 - - - - - - -
21/05:00pm 9.8 N 6 8 1019.2 - 0.0 - - - - - - -
21/04:30pm 10.8 N 8 12 1019.2 - 0.0 - - - - - - -
21/04:00pm 11.6 N 8 13 1019.0 - 0.0 - - - - - - -
21/03:30pm 12.1 NNW 11 16 1018.9 - 0.0 - - - - - - -
21/03:00pm 13.5 N 9 14 1019.1 - 0.0 - - - - - - -
21/02:30pm 13.8 NNW 10 15 1019.4 - 0.0 - - - - - - -
21/02:00pm 13.7 NNW 10 17 1019.5 - 0.0 - - - - - - -
21/01:30pm 13.7 N 10 16 1019.9 - 0.0 - - - - - - -
21/01:00pm 13.6 NNW 11 16 1020.6 - 0.0 - - - - - - -
21/12:30pm 13.8 N 9 17 1021.0 - 0.0 - - - - - - -
21/12:00pm 13.1 N 11 15 1021.5 - 0.0 - - - - - - -
21/11:30am 11.8 NNW 13 20 1022.2 - 0.0 - - - - - - -
21/11:00am 11.1 N 13 19 1022.7 - 0.0 - - - - - - -
21/10:30am 10.3 N 14 21 1023.2 - 0.0 - - - - - - -
21/10:00am 9.2 N 14 21 1023.3 - 0.0 - - - - - - -
21/09:30am 7.3 N 13 19 1023.4 - 0.0 - - - - - - -
21/09:00am 8.2 N 12 19 1023.3 - 0.0 - - - - - - -
21/08:30am 7.6 N 10 14 1023.1 - 0.0 - - - - - - -
21/08:00am 6.0 N 8 11 1023.2 - 0.0 - - - - - - -
21/07:30am 6.7 NNE 8 11 1022.9 - 0.0 - - - - - - -
21/07:00am 6.7 N 9 13 1022.7 - 0.0 - - - - - - -
21/06:30am 7.1 N 9 13 1022.2 - 0.0 - - - - - - -
21/06:00am 6.5 N 10 14 1022.4 - 0.0 - - - - - - -
21/05:30am 5.6 N 9 12 1022.6 - 0.0 - - - - - - -
21/05:00am 5.1 N 8 10 1022.5 - 0.0 - - - - - - -
21/04:30am 4.5 N 8 9 1022.2 - 0.0 - - - - - - -
21/04:00am 4.3 N 7 9 1021.9 - 0.0 - - - - - - -
21/03:30am 3.9 N 7 9 1021.8 - 0.0 - - - - - - -
21/03:00am 3.8 N 7 8 1022.1 - 0.0 - - - - - - -
21/02:30am 4.2 N 7 9 1022.2 - 0.0 - - - - - - -
21/02:00am 4.8 N 7 8 1022.3 - 0.0 - - - - - - -
21/01:30am 5.3 N 7 8 1022.5 - 0.0 - - - - - - -
21/01:00am 6.3 N 7 8 1022.9 - 0.0 - - - - - - -
21/12:30am 6.1 N 7 8 1023.0 - 0.0 - - - - - - -
21/12:00am 6.2 N 6 7 1023.1 - 0.0 - - - - - - -
 
Date/Time
CST
Temp
°C
Wind Pressure Rain since
9am
mm
Weather Cloud Vis
km
Sea
Height
m
Swell
Dir  Spd
kts
Gust
kts
hPa Trend Height
m
Period
s
Dir
20/11:30pm 6.4 N 7 8 1023.2 - 0.0 - - - - - - -
20/11:00pm 6.6 N 7 9 1023.2 - 0.0 - - - - - - -
20/10:30pm 7.1 N 6 8 1023.2 - 0.0 - - - - - - -
20/10:00pm 7.5 N 6 9 1023.1 - 0.0 - - - - - - -
20/09:30pm 9.4 ENE 6 10 1023.0 - 0.0 - - - - - - -
20/09:00pm 9.8 E 8 11 1022.9 - 0.0 - - - - - - -
20/08:30pm 9.8 E 8 11 1022.8 - 0.0 - - - - - - -
20/08:00pm 9.6 E 8 12 1022.9 - 0.0 - - - - - - -
20/07:30pm 9.8 E 9 12 1022.8 - 0.0 - - - - - - -
20/07:00pm 10.2 E 9 12 1022.7 - 0.0 - - - - - - -
20/06:30pm 10.0 ESE 8 15 1022.3 - 0.0 - - - - - - -
20/06:00pm 10.1 ESE 9 14 1022.1 - 0.0 - - - - - - -
20/05:30pm 10.1 ESE 9 16 1021.8 - 0.0 - - - - - - -
20/05:00pm 10.2 SE 9 14 1021.8 - 0.0 - - - - - - -
20/04:30pm 10.3 SE 11 15 1021.9 - 0.0 - - - - - - -
20/04:00pm 10.4 SSE 13 16 1021.8 - 0.0 - - - - - - -
20/03:30pm 10.6 SSE 13 18 1021.8 - 0.0 - - - - - - -
20/03:00pm 11.3 SSE 14 20 1021.6 - 0.0 - - - - - - -
20/02:30pm 11.6 SSE 14 18 1021.5 - 0.0 - - - - - - -
20/02:00pm 11.6 S 13 20 1021.5 - 0.0 - - - - - - -
20/01:30pm 11.1 S 13 20 1021.5 - 0.0 - - - - - - -
20/01:00pm 10.9 S 14 21 1021.7 - 0.0 - - - - - - -
20/12:30pm 11.3 S 16 23 1022.1 - 0.0 - - - - - - -
20/12:02pm 11.4 S 15 25 1021.8 - 0.0 - - - - - - -
20/12:00pm 11.1 S 17 25 1021.8 - 0.0 - - - - - - -
20/11:30am 10.5 S 18 26 1022.2 - 0.0 - - - - - - -
20/11:08am 11.1 S 17 27 1022.2 - 0.0 - - - - - - -
20/11:00am 11.0 S 20 26 1022.2 - 0.0 - - - - - - -
20/10:44am 10.9 S 15 26 1022.2 - 0.0 - - - - - - -
20/10:30am 11.3 S 13 23 1022.0 - 0.0 - - - - - - -
20/10:00am 11.0 E 9 15 1022.0 - 0.0 - - - - - - -
20/09:30am 10.7 S 18 30 1021.7 - 0.0 - - - - - - -
20/09:00am 10.8 S 15 25 1021.5 - 0.0 - - - - - - -
20/08:34am 10.8 S 20 30 1021.2 - 0.0 - - - - - - -
20/08:30am 10.7 S 21 30 1021.2 - 0.2 - - - - - - -
20/08:19am 10.7 ESE 12 27 1021.1 - 0.2 - - - - - - -
20/08:00am 10.5 E 12 23 1020.8 - 0.2 - - - - - - -
20/07:30am 10.7 S 13 24 1020.4 - 0.2 - - - - - - -
20/07:00am 10.3 S 17 33 1020.3 - 0.2 - - - - - - -
20/06:44am 10.7 S 19 33 1020.0 - 0.2 - - - - - - -
20/06:43am 10.7 S 19 33 1020.0 - 0.2 - - - - - - -
20/06:35am 10.8 SE 15 31 1020.0 - 0.2 - - - - - - -
20/06:30am 10.9 SSE 14 30 1019.6 - 0.2 - - - - - - -
20/06:00am 11.1 SSE 16 29 1019.5 - 0.2 - - - - - - -
20/05:39am 10.8 SSE 14 25 1019.3 - 0.2 - - - - - - -
20/05:30am 10.4 SE 14 25 1019.1 - 0.2 - - - - - - -
20/05:01am 11.0 NE 13 27 1019.1 - 0.2 - - - - - - -
20/05:00am 11.2 NE 14 27 1019.0 - 0.2 - - - - - - -
20/04:30am 11.7 N 13 23 1018.9 - 0.2 - - - - - - -
20/04:00am 11.6 NNE 13 21 1018.8 - 0.2 - - - - - - -
20/03:30am 11.6 NNW 13 22 1018.8 - 0.2 - - - - - - -
20/03:17am 11.4 N 15 26 1018.7 - 0.2 - - - - - - -
20/03:00am 11.4 NNE 12 21 1018.9 - 0.2 - - - - - - -
20/02:30am 11.9 NW 15 24 1019.0 - 0.2 - - - - - - -
20/02:12am 11.6 NW 14 26 1019.1 - 0.2 - - - - - - -
20/02:00am 11.6 NNW 14 24 1019.2 - 0.2 - - - - - - -
20/01:30am 11.6 NNE 13 23 1018.9 - 0.2 - - - - - - -
20/01:12am 11.8 NNW 13 27 1019.0 - 0.2 - - - - - - -
20/01:00am 11.8 NNW 13 21 1019.2 - 0.2 - - - - - - -
20/12:38am 11.7 NNW 14 28 1019.3 - 0.0 - - - - - - -
20/12:30am 11.6 N 13 20 1019.3 - 0.0 - - - - - - -
20/12:04am 11.7 W 18 28 1019.8 - 0.0 - - - - - - -
20/12:00am 11.6 W 18 25 1019.8 - 0.0 - - - - - - -
 
Date/Time
CST
Temp
°C
Wind Pressure Rain since
9am
mm
Weather Cloud Vis
km
Sea
Height
m
Swell
Dir  Spd
kts
Gust
kts
hPa Trend Height
m
Period
s
Dir
19/11:47pm 11.6 NW 14 27 1019.9 - 0.0 - - - - - - -
19/11:30pm 11.5 NW 16 24 1020.0 - 0.0 - - - - - - -
19/11:00pm 11.5 NW 14 25 1020.1 - 0.0 - - - - - - -
19/10:30pm 11.3 WNW 16 30 1020.5 - 0.0 - - - - - - -
19/10:24pm 11.3 NW 13 25 1020.4 - 0.0 - - - - - - -
19/10:00pm 11.5 NW 14 25 1020.4 - 0.0 - - - - - - -
19/09:58pm 11.4 NW 14 25 1020.2 - 0.0 - - - - - - -
19/09:30pm 11.4 N 13 20 1020.5 - 0.0 - - - - - - -
19/09:00pm 11.3 WNW 15 26 1020.8 - 0.0 - - - - - - -
19/08:53pm 11.3 NW 13 26 1020.9 - 0.0 - - - - - - -
19/08:30pm 11.1 NW 14 23 1020.9 - 0.0 - - - - - - -
19/08:00pm 11.2 W 15 25 1020.9 - 0.0 - - - - - - -
19/07:37pm 11.1 W 16 26 1020.9 - 0.0 - - - - - - -
19/07:30pm 10.9 WNW 15 23 1020.7 - 0.0 - - - - - - -
19/07:00pm 10.9 WNW 15 24 1020.8 - 0.0 - - - - - - -
19/06:30pm 10.8 NE 11 23 1020.4 - 0.0 - - - - - - -
19/06:00pm 11.0 NNE 11 19 1020.6 - 0.0 - - - - - - -
19/05:30pm 11.0 NE 10 18 1020.5 - 0.0 - - - - - - -
19/05:00pm 10.9 ESE 9 21 1020.1 - 0.0 - - - - - - -
19/04:30pm 10.8 SE 9 17 1020.1 - 0.0 - - - - - - -
19/04:00pm 11.0 SSE 9 16 1019.8 - 0.0 - - - - - - -
19/03:30pm 11.3 SSE 12 21 1019.6 - 0.0 - - - - - - -
19/03:00pm 11.4 S 12 24 1019.9 - 0.0 - - - - - - -
19/02:30pm 11.6 S 18 28 1019.9 - 0.0 - - - - - - -
19/02:03pm 11.4 SE 11 29 1020.0 - 0.0 - - - - - - -
19/02:00pm 11.5 SSE 10 17 1019.7 - 0.0 - - - - - - -
19/01:38pm 11.4 S 15 26 1020.0 - 0.0 - - - - - - -
19/01:30pm 11.3 S 14 23 1019.7 - 0.0 - - - - - - -
19/01:00pm 11.6 S 19 27 1019.9 - 0.0 - - - - - - -
19/12:32pm 11.3 S 19 29 1019.9 - 0.0 - - - - - - -
19/12:30pm 11.4 S 20 29 1019.8 - 0.0 - - - - - - -
19/12:00pm 11.2 S 17 27 1020.0 - 0.0 - - - - - - -
19/11:30am 10.9 S 21 31 1020.2 - 0.0 - - - - - - -
19/11:07am 11.0 S 21 31 1020.0 - 0.0 - - - - - - -
19/11:00am 11.2 S 21 30 1020.0 - 0.0 - - - - - - -
19/10:30am 11.2 S 24 31 1019.7 - 0.0 - - - - - - -
19/10:00am 11.4 S 24 31 1019.2 - 0.0 - - - - - - -
19/09:34am 10.8 S 26 36 1019.0 - 0.0 - - - - - - -
19/09:30am 10.5 S 26 33 1018.9 - 0.0 - - - - - - -
19/09:01am 9.9 S 24 34 1018.4 - 0.0 - - - - - - -
19/09:00am 10.1 S 25 34 1018.3 - 0.0 - - - - - - -
19/08:49am 10.4 S 24 34 1017.9 - 0.0 - - - - - - -
19/08:30am 11.0 S 27 35 1017.4 - 5.4 - - - - - - -
19/08:00am 10.2 S 25 32 1016.8 - 5.4 - - - - - - -
19/07:30am 10.4 S 22 35 1016.3 - 5.4 - - - - - - -
19/07:09am 11.3 S 25 35 1015.7 - 5.4 - - - - - - -
19/07:00am 10.7 S 28 34 1015.9 - 5.4 - - - - - - -
19/06:30am 10.5 S 28 36 1015.4 - 5.4 - - - - - - -
19/06:11am 11.2 S 27 37 1014.8 - 5.4 - - - - - - -
19/06:00am 11.2 S 30 38 1014.8 - 5.4 - - - - - - -
19/05:53am 10.8 SSE 19 37 1014.7 - 5.4 - - - - - - -
19/05:51am 11.2 SSE 18 31 1014.4 - 5.4 - - - - - - -
19/05:46am 11.3 S 23 36 1014.2 - 5.4 - - - - - - -
19/05:30am 11.2 S 27 37 1014.2 - 5.4 Recent precip. - - - - - -
19/05:28am 11.1 S 27 37 1014.2 - 5.4 - - - - - - -
19/05:16am 10.8 S 27 37 1014.1 - 5.4 - - - - - - -
19/05:00am 11.5 S 21 37 1013.5 - 5.4 - - - - - - -
19/04:30am 12.1 S 28 38 1013.3 - 5.2 - - - - - - -
19/04:01am 11.3 S 28 38 1012.5 - 5.2 - - - - - - -
19/04:00am 11.2 S 29 38 1012.5 - 5.2 - - - - - - -
19/03:30am 10.9 S 27 38 1011.9 - 5.2 - - - - - - -
19/03:11am 11.9 S 32 42 1011.5 - 5.2 - - - - - - -
19/03:00am 11.6 S 31 40 1011.4 - 5.2 - - - - - - -
19/02:33am 11.9 S 31 41 1010.9 - 5.2 - - - - - - -
19/02:30am 11.9 S 33 41 1011.0 - 5.2 - - - - - - -
19/02:00am 11.4 S 27 40 1010.6 - 5.2 - - - - - - -
19/01:30am 11.4 S 25 37 1010.1 - 5.2 - - - - - - -
19/01:03am 12.5 S 23 34 1009.8 - 4.2 - - - - - - -
19/01:00am 12.5 S 21 30 1009.8 - 4.2 - - - - - - -
19/12:31am 12.2 SSE 15 25 1009.3 - 4.2 - - - - - - -
19/12:30am 12.2 SSE 14 25 1009.2 - 4.2 - - - - - - -
19/12:00am 12.1 SSE 11 19 1008.7 - 4.2 - - - - - - -
 
Date/Time
CST
Temp
°C
Wind Pressure Rain since
9am
mm
Weather Cloud Vis
km
Sea
Height
m
Swell
Dir  Spd
kts
Gust
kts
hPa Trend Height
m
Period
s
Dir
18/11:30pm 11.9 SE 10 19 1008.7 - 4.2 Recent precip. - - - - - -
18/11:00pm 12.1 SSE 15 24 1008.4 - 4.2 - - - - - - -
18/10:30pm 11.2 S 18 34 1008.7 - 4.0 - - - - - - -
18/10:00pm 12.1 S 17 27 1008.2 - 3.8 - - - - - - -

Other Formats:

Comma delimited format used in spreadsheet applications
http://www.bom.gov.au/fwo/IDS60701/IDS60701.94826.axf

JavaScript Object Notation format (JSON) in row-major order
http://www.bom.gov.au/fwo/IDS60701/IDS60701.94826.json